createdAt,value
2018-09-02T00:01:01.704Z,18.30
2018-09-02T00:03:43.855Z,18.30
2018-09-02T00:06:25.239Z,18.30
2018-09-02T00:09:06.532Z,18.30
2018-09-02T00:11:47.252Z,18.40
2018-09-02T00:14:27.817Z,18.40
2018-09-02T00:17:10.172Z,18.50
2018-09-02T00:19:50.630Z,18.50
2018-09-02T00:22:31.849Z,18.50
2018-09-02T00:25:13.917Z,18.40
2018-09-02T00:27:54.540Z,18.50
2018-09-02T00:30:35.237Z,18.50
2018-09-02T00:33:15.765Z,18.40
2018-09-02T00:35:56.287Z,18.40
2018-09-02T00:38:37.003Z,18.40
2018-09-02T00:41:17.555Z,18.30
2018-09-02T00:43:57.965Z,18.30
2018-09-02T00:46:38.244Z,18.20
2018-09-02T00:49:18.832Z,18.30
2018-09-02T00:51:59.276Z,18.20
2018-09-02T00:54:40.689Z,18.20
2018-09-02T00:57:21.120Z,18.30
2018-09-02T01:00:01.621Z,18.30
2018-09-02T01:02:43.869Z,18.40
2018-09-02T01:05:24.399Z,18.30
2018-09-02T01:08:05.207Z,18.30
2018-09-02T01:10:45.836Z,18.30
2018-09-02T01:13:26.332Z,18.30
2018-09-02T01:16:06.877Z,18.40
2018-09-02T01:18:47.377Z,18.50
2018-09-02T01:21:28.066Z,18.40
2018-09-02T01:24:09.769Z,18.40
2018-09-02T01:26:50.308Z,18.50
2018-09-02T01:29:30.857Z,18.50
2018-09-02T01:32:14.508Z,18.60
2018-09-02T01:34:54.919Z,18.60
2018-09-02T01:37:35.232Z,18.60
2018-09-02T01:40:15.741Z,18.70
2018-09-02T01:42:56.356Z,18.70
2018-09-02T01:45:36.825Z,18.70
2018-09-02T01:48:17.360Z,18.70
2018-09-02T01:50:57.775Z,18.80
2018-09-02T01:53:38.238Z,18.70
2018-09-02T01:56:18.776Z,18.80
2018-09-02T01:58:59.657Z,18.80
2018-09-02T02:01:42.852Z,18.80
2018-09-02T02:04:23.961Z,18.80
2018-09-02T02:07:04.650Z,18.70
2018-09-02T02:09:45.761Z,18.80
2018-09-02T02:12:26.728Z,18.80
2018-09-02T02:15:07.424Z,18.70
2018-09-02T02:43:50.190Z,18.70
2018-09-02T02:46:30.721Z,18.70
2018-09-02T02:49:11.349Z,18.70
2018-09-02T02:51:52.024Z,18.80
2018-09-02T02:54:32.593Z,18.80
2018-09-02T02:57:13.184Z,18.80
2018-09-02T02:59:53.638Z,18.80
2018-09-02T03:02:35.048Z,18.80
2018-09-02T03:05:15.632Z,18.80
2018-09-02T03:07:56.000Z,18.80
2018-09-02T03:10:40.563Z,18.90
2018-09-02T03:13:20.991Z,18.90
2018-09-02T03:16:01.624Z,18.90
2018-09-02T03:18:42.043Z,18.90
2018-09-02T03:21:22.521Z,18.90
2018-09-02T03:24:03.165Z,18.90
2018-09-02T03:26:43.672Z,18.90
2018-09-02T03:29:24.241Z,18.90
2018-09-02T03:32:06.031Z,18.90
2018-09-02T03:34:46.692Z,18.80
2018-09-02T03:37:27.228Z,18.80
2018-09-02T03:40:09.147Z,18.80
2018-09-02T03:42:49.697Z,18.70
2018-09-02T03:45:31.032Z,18.70
2018-09-02T03:48:11.503Z,18.70
2018-09-02T03:50:52.040Z,18.70
2018-09-02T03:53:32.397Z,18.80
2018-09-02T03:56:13.017Z,18.80
2018-09-02T03:58:53.463Z,18.80
2018-09-02T04:01:35.385Z,18.80
2018-09-02T04:04:15.951Z,18.80
2018-09-02T04:06:56.540Z,18.80
2018-09-02T04:09:39.769Z,18.80
2018-09-02T04:12:20.360Z,18.80
2018-09-02T04:15:00.949Z,18.80
2018-09-02T04:17:41.570Z,18.80
2018-09-02T04:20:26.787Z,18.80
2018-09-02T04:23:09.377Z,18.80
2018-09-02T04:25:49.880Z,18.80
2018-09-02T04:28:30.368Z,18.90
2018-09-02T04:31:11.169Z,18.90
2018-09-02T04:33:51.651Z,18.90
2018-09-02T04:36:32.149Z,19.00
2018-09-02T04:39:12.659Z,19.00
2018-09-02T04:41:53.280Z,19.10
2018-09-02T04:44:35.235Z,19.10
2018-09-02T04:47:16.129Z,19.10
2018-09-02T04:49:56.665Z,19.20
2018-09-02T04:52:39.317Z,19.20
2018-09-02T04:55:19.849Z,19.30
2018-09-02T04:58:00.374Z,19.30
2018-09-02T05:00:41.043Z,19.30
2018-09-02T05:03:21.593Z,19.30
2018-09-02T05:06:02.192Z,19.30
2018-09-02T05:08:42.713Z,19.30
2018-09-02T05:11:23.364Z,19.40
2018-09-02T05:14:05.047Z,19.30
2018-09-02T05:16:45.603Z,19.30
2018-09-02T05:19:26.166Z,19.30
2018-09-02T05:22:09.682Z,19.40
2018-09-02T05:24:50.153Z,19.40
2018-09-02T05:27:31.000Z,19.40
2018-09-02T05:30:11.714Z,19.40
2018-09-02T05:32:52.251Z,19.40
2018-09-02T05:35:32.812Z,19.50
2018-09-02T05:38:13.470Z,19.50
2018-09-02T05:40:54.078Z,19.50
2018-09-02T05:43:36.031Z,19.50
2018-09-02T05:46:16.854Z,19.50
2018-09-02T05:48:57.343Z,19.50
2018-09-02T05:51:40.030Z,19.60
2018-09-02T05:54:20.694Z,19.60
2018-09-02T05:57:01.307Z,19.60
2018-09-02T05:59:41.921Z,19.60
2018-09-02T06:02:22.520Z,19.60
2018-09-02T06:05:03.057Z,19.60
2018-09-02T06:07:43.531Z,19.60
2018-09-02T06:10:24.333Z,19.60
2018-09-02T06:13:06.249Z,19.60
2018-09-02T06:15:46.964Z,19.70
2018-09-02T06:18:27.649Z,19.60
2018-09-02T06:21:09.836Z,19.60
2018-09-02T06:23:50.255Z,19.70
2018-09-02T06:26:30.785Z,19.70
2018-09-02T06:29:11.200Z,19.70
2018-09-02T06:31:51.742Z,19.70
2018-09-02T06:34:32.192Z,19.80
2018-09-02T06:37:12.765Z,19.80
2018-09-02T06:39:53.442Z,19.80
2018-09-02T06:42:34.963Z,19.80
2018-09-02T06:45:15.584Z,19.80
2018-09-02T06:47:56.108Z,19.80
2018-09-02T06:50:39.632Z,19.80
2018-09-02T06:53:20.135Z,19.80
2018-09-02T06:56:01.236Z,19.80
2018-09-02T06:58:41.742Z,19.80
2018-09-02T07:01:22.788Z,19.80
2018-09-02T07:04:03.109Z,19.80
2018-09-02T07:06:43.655Z,19.70
2018-09-02T07:09:24.304Z,19.70
2018-09-02T07:12:05.925Z,19.80
2018-09-02T07:14:46.572Z,19.70
2018-09-02T07:17:27.215Z,19.70
2018-09-02T07:20:11.579Z,19.60
2018-09-02T07:22:52.078Z,19.60
2018-09-02T07:25:32.907Z,19.60
2018-09-02T07:28:13.440Z,19.60
2018-09-02T07:30:55.049Z,19.60
2018-09-02T07:33:38.616Z,19.60
2018-09-02T07:36:20.119Z,19.60
2018-09-02T07:39:00.807Z,19.60
2018-09-02T07:41:41.393Z,19.70
2018-09-02T07:44:21.972Z,19.70
2018-09-02T07:47:02.623Z,19.70
2018-09-02T07:49:44.250Z,19.70
2018-09-02T07:52:25.649Z,19.70
2018-09-02T07:55:10.012Z,19.70
2018-09-02T07:57:51.250Z,19.70
2018-09-02T08:00:32.489Z,19.80
2018-09-02T08:03:13.108Z,19.80
2018-09-02T08:05:54.195Z,19.80
2018-09-02T08:08:38.343Z,19.80
2018-09-02T08:11:18.991Z,19.70
2018-09-02T08:13:59.521Z,19.70
2018-09-02T08:16:41.248Z,19.70
2018-09-02T08:19:21.875Z,19.70
2018-09-02T08:22:02.431Z,19.70
2018-09-02T08:24:42.883Z,19.70
2018-09-02T08:27:23.273Z,19.80
2018-09-02T08:30:05.707Z,19.90
2018-09-02T08:32:46.346Z,19.90
2018-09-02T08:35:26.805Z,19.90
2018-09-02T08:38:09.463Z,19.90
2018-09-02T08:40:50.140Z,19.80
2018-09-02T08:43:30.560Z,19.80
2018-09-02T08:46:14.173Z,19.90
2018-09-02T08:48:54.644Z,19.80
2018-09-02T08:51:36.345Z,19.80
2018-09-02T08:54:16.881Z,19.70
2018-09-02T08:56:57.716Z,19.70
2018-09-02T08:59:40.129Z,19.70
2018-09-02T09:02:20.960Z,19.80
2018-09-02T09:05:01.998Z,19.70
2018-09-02T09:07:42.993Z,19.70
2018-09-02T09:10:23.525Z,19.70
2018-09-02T09:13:05.793Z,19.70
2018-09-02T09:15:46.716Z,19.80
2018-09-02T09:18:27.213Z,19.90
2018-09-02T09:21:09.921Z,19.90
2018-09-02T09:23:50.443Z,20.00
2018-09-02T09:26:31.139Z,20.00
2018-09-02T09:29:11.949Z,20.00
2018-09-02T09:31:52.728Z,20.10
2018-09-02T09:34:33.875Z,20.30
2018-09-02T09:37:14.809Z,20.40
2018-09-02T09:39:55.912Z,20.60
2018-09-02T09:42:40.844Z,20.70
2018-09-02T09:45:21.640Z,20.70
2018-09-02T09:48:02.269Z,20.80
2018-09-02T09:50:42.672Z,20.70
2018-09-02T09:53:23.290Z,20.70
2018-09-02T09:56:06.823Z,20.80
2018-09-02T09:58:47.389Z,20.90
2018-09-02T10:01:27.829Z,21.10
2018-09-02T10:04:09.746Z,21.50
2018-09-02T10:06:50.414Z,21.80
2018-09-02T10:09:31.122Z,22.00
2018-09-02T10:12:14.561Z,22.10
2018-09-02T10:14:55.088Z,22.00
2018-09-02T10:17:38.733Z,22.10
2018-09-02T10:20:19.334Z,22.00
2018-09-02T10:23:00.316Z,22.00
2018-09-02T10:25:43.090Z,21.90
2018-09-02T10:28:25.367Z,21.80
2018-09-02T10:31:10.465Z,21.80
2018-09-02T10:33:51.142Z,21.70
2018-09-02T10:36:31.798Z,21.60
2018-09-02T10:39:12.443Z,21.50
2018-09-02T10:41:58.778Z,21.50
2018-09-02T10:44:42.141Z,21.30
2018-09-02T10:47:22.971Z,21.30
2018-09-02T10:50:03.455Z,21.30
2018-09-02T10:52:44.375Z,21.20
2018-09-02T10:55:24.932Z,21.20
2018-09-02T10:58:07.463Z,21.30
2018-09-02T11:00:48.427Z,21.50
2018-09-02T11:03:29.818Z,21.50
2018-09-02T11:06:11.732Z,21.50
2018-09-02T11:08:52.925Z,21.50
2018-09-02T11:11:33.592Z,21.60
2018-09-02T11:14:14.177Z,21.70
2018-09-02T11:16:54.900Z,21.80
2018-09-02T11:19:35.468Z,21.90
2018-09-02T11:22:46.356Z,21.90
2018-09-02T11:25:26.727Z,22.00
2018-09-02T11:28:10.089Z,22.00
2018-09-02T11:30:50.651Z,22.00
2018-09-02T11:33:31.102Z,22.00
2018-09-02T11:36:12.888Z,22.20
2018-09-02T11:38:53.423Z,22.40
2018-09-02T11:41:34.260Z,22.50
2018-09-02T11:44:14.957Z,22.50
2018-09-02T11:46:55.559Z,22.60
2018-09-02T11:49:37.251Z,22.60
2018-09-02T11:52:17.981Z,22.70
2018-09-02T11:54:58.612Z,22.70
2018-09-02T11:57:41.323Z,22.70
2018-09-02T12:00:22.521Z,22.80
2018-09-02T12:03:03.576Z,22.80
2018-09-02T12:05:44.097Z,22.90
2018-09-02T12:08:24.621Z,23.00
2018-09-02T12:11:05.129Z,23.10
2018-09-02T12:13:53.615Z,23.10
2018-09-02T12:16:34.484Z,23.20
2018-09-02T12:19:14.952Z,23.20
2018-09-02T12:21:55.574Z,23.20
2018-09-02T12:24:44.755Z,23.20
2018-09-02T12:27:25.395Z,23.20
2018-09-02T12:30:08.073Z,23.30
2018-09-02T12:32:48.527Z,23.30
2018-09-02T12:35:29.077Z,23.40
2018-09-02T12:38:11.120Z,23.30
2018-09-02T12:40:51.677Z,23.40
2018-09-02T12:43:32.240Z,23.50
2018-09-02T12:46:12.941Z,23.60
2018-09-02T12:48:53.749Z,23.70
2018-09-02T12:51:34.316Z,23.70
2018-09-02T12:54:14.887Z,23.70
2018-09-02T12:56:55.447Z,23.60
2018-09-02T12:59:37.625Z,23.70
2018-09-02T13:02:18.024Z,23.60
2018-09-02T13:04:58.764Z,23.60
2018-09-02T13:07:41.371Z,23.50
2018-09-02T13:10:21.794Z,23.40
2018-09-02T13:13:10.704Z,23.40
2018-09-02T13:15:51.259Z,23.30
2018-09-02T13:18:31.896Z,23.30
2018-09-02T13:21:22.204Z,23.30
2018-09-02T13:24:02.956Z,23.30
2018-09-02T13:26:43.853Z,23.30
2018-09-02T13:29:24.444Z,23.30
2018-09-02T13:32:05.192Z,23.30
2018-09-02T13:34:45.760Z,23.30
2018-09-02T13:37:26.320Z,23.30
2018-09-02T13:40:07.806Z,23.30
2018-09-02T13:43:01.662Z,23.30
2018-09-02T13:45:43.930Z,23.30
2018-09-02T13:48:24.559Z,23.30
2018-09-02T13:51:05.077Z,23.20
2018-09-02T13:53:45.504Z,23.10
2018-09-02T13:56:25.876Z,22.60
2018-09-02T13:59:06.457Z,22.00
2018-09-02T14:01:46.972Z,21.50
2018-09-02T14:04:27.603Z,20.90
2018-09-02T14:07:11.304Z,20.40
2018-09-02T14:09:51.847Z,20.30
2018-09-02T14:12:32.376Z,20.20
2018-09-02T14:15:13.995Z,19.80
2018-09-02T14:17:54.664Z,19.70
2018-09-02T14:20:35.147Z,19.50
2018-09-02T14:23:15.621Z,19.50
2018-09-02T14:25:56.202Z,19.50
2018-09-02T14:28:37.959Z,19.40
2018-09-02T14:31:18.512Z,19.30
2018-09-02T14:33:59.138Z,19.30
2018-09-02T14:36:43.380Z,19.20
2018-09-02T14:39:24.285Z,19.10
2018-09-02T14:42:05.734Z,19.10
2018-09-02T14:44:46.234Z,19.10
2018-09-02T14:47:26.753Z,19.10
2018-09-02T14:50:09.207Z,19.10
2018-09-02T14:52:50.538Z,19.10
2018-09-02T14:55:30.956Z,19.10
2018-09-02T14:58:12.628Z,19.10
2018-09-02T15:00:53.380Z,19.10
2018-09-02T15:03:33.814Z,19.10
2018-09-02T15:06:14.458Z,19.10
2018-09-02T15:08:54.950Z,19.10
2018-09-02T15:11:36.376Z,19.00
2018-09-02T15:14:19.868Z,19.10
2018-09-02T15:17:00.785Z,19.10
2018-09-02T15:19:42.593Z,19.10
2018-09-02T15:22:23.177Z,19.10
2018-09-02T15:25:03.549Z,19.10
2018-09-02T15:27:45.008Z,19.10
2018-09-02T15:30:25.581Z,19.10
2018-09-02T15:33:06.139Z,19.10
2018-09-02T15:35:46.780Z,19.10
2018-09-02T15:38:27.493Z,19.20
2018-09-02T15:41:11.313Z,19.20
2018-09-02T15:43:52.501Z,19.20
2018-09-02T15:46:33.236Z,19.20
2018-09-02T15:49:14.751Z,19.20
2018-09-02T15:51:55.423Z,19.20
2018-09-02T15:54:35.786Z,19.20
2018-09-02T15:57:16.389Z,19.20
2018-09-02T15:59:58.099Z,19.20
2018-09-02T16:02:41.258Z,19.10
2018-09-02T16:05:22.802Z,19.00
2018-09-02T16:08:03.480Z,18.90
2018-09-02T16:10:44.144Z,18.90
2018-09-02T16:13:24.594Z,19.00
2018-09-02T16:16:05.407Z,19.00
2018-09-02T16:18:46.004Z,18.90
2018-09-02T16:21:26.724Z,18.90
2018-09-02T16:24:07.914Z,19.00
2018-09-02T16:26:48.913Z,19.00
2018-09-02T16:29:30.698Z,19.00
2018-09-02T16:32:12.935Z,19.00
2018-09-02T16:34:54.032Z,19.00
2018-09-02T16:37:34.492Z,19.00
2018-09-02T16:40:16.089Z,19.00
2018-09-02T16:42:57.612Z,18.90
2018-09-02T16:45:41.254Z,18.90
2018-09-02T16:48:21.952Z,18.90
2018-09-02T16:51:02.489Z,18.90
2018-09-02T16:53:44.228Z,18.90
2018-09-02T16:56:24.666Z,18.90
2018-09-02T16:59:05.135Z,19.00
2018-09-02T17:01:45.547Z,19.00
2018-09-02T17:04:27.893Z,19.00
2018-09-02T17:07:11.126Z,19.00
2018-09-02T17:09:51.746Z,19.00
2018-09-02T17:12:32.339Z,19.00
2018-09-02T17:15:15.064Z,19.00
2018-09-02T17:17:55.629Z,19.00
2018-09-02T17:20:38.823Z,19.00
2018-09-02T17:23:19.362Z,19.00
2018-09-02T17:26:03.089Z,19.00
2018-09-02T17:28:46.089Z,19.00
2018-09-02T17:31:30.493Z,19.00
2018-09-02T17:34:13.202Z,19.00
2018-09-02T17:36:53.637Z,19.00
2018-09-02T17:39:35.194Z,19.00
2018-09-02T17:42:15.714Z,19.00
2018-09-02T17:44:56.236Z,19.00
2018-09-02T17:47:36.876Z,19.00
2018-09-02T17:50:20.052Z,19.00
2018-09-02T17:53:00.575Z,19.00
2018-09-02T17:55:43.650Z,19.00
2018-09-02T17:58:24.364Z,18.90
2018-09-02T18:01:05.436Z,18.90
2018-09-02T18:03:45.965Z,18.90
2018-09-02T18:06:26.588Z,18.90
2018-09-02T18:09:12.169Z,18.90
2018-09-02T18:11:54.998Z,18.90
2018-09-02T18:14:35.711Z,18.90
2018-09-02T18:17:16.511Z,18.90
2018-09-02T18:19:57.461Z,18.90
2018-09-02T18:22:39.853Z,18.90
2018-09-02T18:28:36.224Z,18.90
2018-09-02T18:31:17.338Z,18.90
2018-09-02T18:33:59.526Z,18.90
2018-09-02T18:36:42.421Z,18.90
2018-09-02T18:39:23.098Z,18.90
2018-09-02T18:42:03.645Z,18.90
2018-09-02T18:44:46.516Z,18.90
2018-09-02T18:47:27.198Z,18.80
2018-09-02T18:50:07.891Z,18.80
2018-09-02T18:52:51.290Z,18.80
2018-09-02T18:55:31.913Z,18.90
2018-09-02T18:58:16.237Z,18.90
2018-09-02T19:00:56.873Z,18.80
2018-09-02T19:03:37.416Z,18.80
2018-09-02T19:06:18.768Z,18.80
2018-09-02T19:08:59.364Z,18.90
2018-09-02T19:11:40.072Z,18.90
2018-09-02T19:14:22.574Z,18.90
2018-09-02T19:17:03.496Z,18.90
2018-09-02T19:19:46.947Z,18.90
2018-09-02T19:22:27.423Z,18.90
2018-09-02T19:25:08.127Z,18.80
2018-09-02T19:27:49.206Z,18.80
2018-09-02T19:30:29.725Z,18.80
2018-09-02T19:33:10.339Z,18.80
2018-09-02T19:35:52.233Z,18.80
2018-09-02T19:38:32.828Z,18.80
2018-09-02T19:41:15.906Z,18.80
2018-09-02T19:43:56.477Z,18.80
2018-09-02T19:46:37.149Z,18.70
2018-09-02T19:49:19.194Z,18.70
2018-09-02T19:51:59.891Z,18.70
2018-09-02T19:54:40.800Z,18.70
2018-09-02T19:57:21.215Z,18.70
2018-09-02T20:00:01.801Z,18.60
2018-09-02T20:02:42.472Z,18.70
2018-09-02T20:05:23.142Z,18.60
2018-09-02T20:08:03.734Z,18.60
2018-09-02T20:10:45.876Z,18.60
2018-09-02T20:13:26.454Z,18.60
2018-09-02T20:16:07.024Z,18.60
2018-09-02T20:18:49.625Z,18.70
2018-09-02T20:21:30.100Z,18.70
2018-09-02T20:24:10.745Z,18.70
2018-09-02T20:26:51.259Z,18.70
2018-09-02T20:29:31.764Z,18.70
2018-09-02T20:32:12.243Z,18.70
2018-09-02T20:34:52.830Z,18.70
2018-09-02T20:37:33.594Z,18.80
2018-09-02T20:40:15.524Z,18.80
2018-09-02T20:42:57.140Z,18.80
2018-09-02T20:45:37.616Z,18.80
2018-09-02T20:48:19.140Z,18.80
2018-09-02T20:50:59.705Z,18.80
2018-09-02T20:53:40.090Z,18.80
2018-09-02T20:56:20.379Z,18.70
2018-09-02T20:59:00.780Z,18.70
2018-09-02T21:01:41.206Z,18.70
2018-09-02T21:04:21.804Z,18.70
2018-09-02T21:07:02.483Z,18.70
2018-09-02T21:09:43.033Z,18.60
2018-09-02T21:12:23.516Z,18.60
2018-09-02T21:15:03.960Z,18.60
2018-09-02T21:17:48.837Z,18.60
2018-09-02T21:20:30.947Z,18.50
2018-09-02T21:23:11.567Z,18.50
2018-09-02T21:25:52.405Z,18.50
2018-09-02T21:28:33.026Z,18.50
2018-09-02T21:31:14.539Z,18.50
2018-09-02T21:33:55.144Z,18.50
2018-09-02T21:36:35.748Z,18.50
2018-09-02T21:39:18.568Z,18.50
2018-09-02T21:41:59.238Z,18.60
2018-09-02T21:44:39.732Z,18.60
2018-09-02T21:47:20.399Z,18.60
2018-09-02T21:50:00.969Z,18.50
2018-09-02T21:52:41.537Z,18.50
2018-09-02T21:55:21.868Z,18.50
2018-09-02T21:58:02.352Z,18.50
2018-09-02T22:00:42.726Z,18.50
2018-09-02T22:03:23.195Z,18.50
2018-09-02T22:06:03.947Z,18.40
2018-09-02T22:08:45.869Z,18.40
2018-09-02T22:11:26.753Z,18.40
2018-09-02T22:14:07.303Z,18.40
2018-09-02T22:16:49.577Z,18.40
2018-09-02T22:19:30.116Z,18.40
2018-09-02T22:22:10.452Z,18.40
2018-09-02T22:24:51.052Z,18.40
2018-09-02T22:27:31.475Z,18.50
2018-09-02T22:30:12.039Z,18.50
2018-09-02T22:32:52.571Z,18.50
2018-09-02T22:35:33.047Z,18.50
2018-09-02T22:38:14.520Z,18.50
2018-09-02T22:40:55.088Z,18.50
2018-09-02T22:43:35.616Z,18.50
2018-09-02T22:46:18.768Z,18.50
2018-09-02T22:48:59.159Z,18.50
2018-09-02T22:51:39.773Z,18.40
2018-09-02T22:54:20.703Z,18.40
2018-09-02T22:57:01.040Z,18.40
2018-09-02T22:59:41.665Z,18.40
2018-09-02T23:02:22.299Z,18.40
2018-09-02T23:05:02.924Z,18.50
2018-09-02T23:07:44.616Z,18.40
2018-09-02T23:10:25.116Z,18.50
2018-09-02T23:13:06.245Z,18.50
2018-09-02T23:15:48.512Z,18.50
2018-09-02T23:18:29.068Z,18.50
2018-09-02T23:21:09.659Z,18.50
2018-09-02T23:23:51.673Z,18.50
2018-09-02T23:26:32.171Z,18.50
2018-09-02T23:29:12.565Z,18.50
2018-09-02T23:31:53.063Z,18.50
2018-09-02T23:34:33.451Z,18.60
2018-09-02T23:37:14.544Z,18.60
2018-09-02T23:39:55.057Z,18.60
2018-09-02T23:42:35.653Z,18.60
2018-09-02T23:45:18.954Z,18.60
2018-09-02T23:47:59.443Z,18.60
2018-09-02T23:50:39.888Z,18.70
2018-09-02T23:53:20.471Z,18.70
2018-09-02T23:56:00.877Z,18.70
2018-09-02T23:58:42.091Z,18.70
